Time;durP1;ratioP1;P1;durP2;ratioP2;P2;SDS_P1;SDS_P2;PMS_P1;PMS_P2;Temp;Humidity;BMP_temperature;BMP_pressure;BME280_temperature;BME280_humidity;BME280_pressure;Samples;Min_cycle;Max_cycle;Signal;HPM_P1;HPM_P2
2020/12/07 00:00:20;;;;;;;17.42;13.20;;;;;;;7.23;80.68;94439.06;4173670;28;20053;-78
2020/12/07 00:02:22;;;;;;;18.25;13.75;;;;;;;7.28;80.35;94448.09;4192729;28;20048;-77
2020/12/07 00:04:23;;;;;;;19.20;13.82;;;;;;;7.25;80.73;94442.34;4194378;28;20056;-78
2020/12/07 00:06:24;;;;;;;17.63;13.25;;;;;;;7.22;80.59;94445.25;4193955;28;20143;-77
2020/12/07 00:08:25;;;;;;;19.67;13.63;;;;;;;7.21;80.19;94443.63;4193236;28;20056;-77
2020/12/07 00:10:27;;;;;;;18.48;12.55;;;;;;;7.13;80.72;94434.72;4176831;28;20049;-76
2020/12/07 00:12:29;;;;;;;18.25;13.50;;;;;;;7.13;80.99;94432.13;4175350;28;20057;-77
2020/12/07 00:14:31;;;;;;;17.38;12.80;;;;;;;7.13;81.09;94439.13;4193609;28;20271;-77
2020/12/07 00:16:33;;;;;;;18.23;12.40;;;;;;;7.16;80.66;94429.25;4176955;28;20087;-78
2020/12/07 00:18:35;;;;;;;18.35;13.65;;;;;;;7.21;80.62;94428.81;4194961;28;20048;-75
2020/12/07 00:20:37;;;;;;;17.92;12.02;;;;;;;7.08;80.49;94421.34;4177823;28;20044;-77
2020/12/07 00:22:38;;;;;;;19.08;12.65;;;;;;;7.17;80.60;94430.06;4195589;28;20377;-77
2020/12/07 00:24:40;;;;;;;17.23;12.70;;;;;;;7.20;80.58;94431.56;4195199;28;20360;-77
2020/12/07 00:26:44;;;;;;;15.52;11.13;;;;;;;7.08;81.03;94423.13;4194331;28;20131;-78
2020/12/07 00:28:45;;;;;;;18.70;12.45;;;;;;;7.10;81.11;94431.63;4192424;28;20775;-79
2020/12/07 00:30:47;;;;;;;17.98;12.38;;;;;;;7.12;80.95;94434.88;4194391;28;20086;-69
2020/12/07 00:32:48;;;;;;;16.08;11.65;;;;;;;7.03;81.51;94420.94;4193119;28;20045;-69
2020/12/07 00:34:50;;;;;;;15.75;12.32;;;;;;;7.01;81.41;94420.25;4193282;28;20068;-69
2020/12/07 00:36:51;;;;;;;19.20;12.90;;;;;;;7.03;81.73;94420.94;4159514;28;20084;-69
2020/12/07 00:38:53;;;;;;;16.65;11.30;;;;;;;7.01;82.04;94416.84;4192482;28;20040;-69
2020/12/07 00:40:54;;;;;;;14.85;10.85;;;;;;;7.05;81.51;94424.22;4174554;28;20112;-69
2020/12/07 00:42:56;;;;;;;16.80;11.25;;;;;;;7.03;81.21;94420.94;4176197;28;20411;-68
2020/12/07 00:44:57;;;;;;;14.90;10.77;;;;;;;7.05;81.29;94419.00;4191178;28;20385;-67
2020/12/07 00:46:59;;;;;;;15.35;10.32;;;;;;;7.00;81.28;94415.22;4194118;28;20148;-69
2020/12/07 00:49:00;;;;;;;17.55;10.60;;;;;;;6.93;81.46;94410.56;4192211;28;20408;-69
2020/12/07 00:51:01;;;;;;;15.07;10.40;;;;;;;6.97;81.44;94396.31;4174761;28;20423;-68
2020/12/07 00:53:05;;;;;;;15.55;10.90;;;;;;;7.01;81.88;94399.41;4175184;28;20051;-69
2020/12/07 00:55:06;;;;;;;16.85;11.35;;;;;;;7.06;81.74;94391.19;4181914;28;20052;-69
2020/12/07 00:57:07;;;;;;;16.10;10.90;;;;;;;7.07;81.23;94393.63;4200112;28;20052;-70
2020/12/07 00:59:09;;;;;;;14.90;10.25;;;;;;;6.93;81.73;94381.13;4190485;28;20052;-70
2020/12/07 01:01:10;;;;;;;15.65;11.25;;;;;;;6.94;81.80;94388.75;4193650;28;20060;-69
2020/12/07 01:03:12;;;;;;;15.55;11.45;;;;;;;7.00;81.39;94396.97;4192136;28;20056;-69
2020/12/07 01:05:13;;;;;;;17.10;11.00;;;;;;;7.01;81.49;94396.00;4154892;28;20058;-69
2020/12/07 01:07:14;;;;;;;15.35;10.73;;;;;;;6.94;81.74;94393.97;4185522;28;20048;-69
2020/12/07 01:09:17;;;;;;;18.48;12.07;;;;;;;6.89;82.06;94393.59;4188176;28;20109;-70
2020/12/07 01:11:18;;;;;;;16.35;10.88;;;;;;;6.87;81.94;94387.72;4178583;28;20049;-71
2020/12/07 01:13:19;;;;;;;17.77;11.48;;;;;;;6.88;81.99;94399.78;4175008;28;20052;-68
2020/12/07 01:15:20;;;;;;;17.90;11.95;;;;;;;6.88;82.03;94389.38;4185374;28;20052;-68
2020/12/07 01:17:22;;;;;;;17.15;12.23;;;;;;;6.90;82.21;94384.00;4193067;28;20098;-69
2020/12/07 01:19:23;;;;;;;16.00;10.35;;;;;;;6.76;82.55;94387.91;4173945;28;20064;-69
2020/12/07 01:21:24;;;;;;;16.58;11.35;;;;;;;6.81;82.10;94384.84;4193134;28;20067;-69
2020/12/07 01:23:25;;;;;;;17.58;11.52;;;;;;;6.81;82.19;94384.84;4192501;28;20082;-77
2020/12/07 01:25:26;;;;;;;14.68;10.18;;;;;;;6.80;82.11;94380.59;4196117;28;20078;-76
2020/12/07 01:27:28;;;;;;;17.23;11.65;;;;;;;6.82;82.02;94379.53;4175579;28;20095;-78
2020/12/07 01:29:29;;;;;;;15.60;11.00;;;;;;;6.74;82.36;94364.59;4194415;28;20048;-77
2020/12/07 01:31:32;;;;;;;15.00;10.88;;;;;;;6.80;82.20;94365.81;4177241;28;20065;-79
2020/12/07 01:33:33;;;;;;;16.17;11.18;;;;;;;6.74;81.84;94363.78;4191349;28;20053;-68
2020/12/07 01:35:35;;;;;;;14.23;10.18;;;;;;;6.82;82.22;94368.25;4188584;28;20366;-76
2020/12/07 01:37:37;;;;;;;16.07;10.90;;;;;;;6.82;81.77;94361.28;4192091;28;20391;-77
2020/12/07 01:39:38;;;;;;;14.18;9.38;;;;;;;6.78;81.87;94353.91;4187238;28;20063;-79
2020/12/07 01:41:40;;;;;;;17.05;10.80;;;;;;;6.89;81.43;94357.13;4191836;28;20125;-77
2020/12/07 01:43:41;;;;;;;15.18;10.43;;;;;;;6.95;81.70;94364.38;4197663;28;20060;-76
2020/12/07 01:45:42;;;;;;;12.68;9.15;;;;;;;6.98;81.21;94366.66;4173689;28;20052;-79
2020/12/07 01:47:43;;;;;;;12.95;10.07;;;;;;;7.01;81.18;94380.38;4173895;28;20506;-76
2020/12/07 01:49:45;;;;;;;15.02;10.45;;;;;;;7.02;81.25;94371.59;4192929;28;20066;-76
2020/12/07 01:51:47;;;;;;;13.93;10.10;;;;;;;7.06;81.02;94365.16;4177066;28;20057;-78
2020/12/07 01:53:49;;;;;;;13.00;9.38;;;;;;;7.05;80.44;94366.91;4189788;28;20056;-77
2020/12/07 01:55:51;;;;;;;14.90;9.45;;;;;;;7.05;79.99;94360.88;4195313;28;20060;-77
2020/12/07 01:57:52;;;;;;;13.13;9.23;;;;;;;6.96;80.42;94352.16;4177064;28;20051;-76
2020/12/07 01:59:54;;;;;;;13.85;9.32;;;;;;;6.97;80.73;94349.41;4191782;28;20056;-77
2020/12/07 02:01:55;;;;;;;11.27;8.48;;;;;;;6.95;80.22;94340.94;4191894;28;20048;-77
2020/12/07 02:03:56;;;;;;;11.68;8.98;;;;;;;6.95;80.20;94333.13;4192812;28;20048;-78
2020/12/07 02:05:58;;;;;;;10.98;8.35;;;;;;;6.91;80.25;94328.34;4174159;28;20044;-77
2020/12/07 02:08:16;;;;;;;10.82;8.68;;;;;;;6.94;80.03;94328.06;4176193;28;20517;-76
2020/12/07 02:10:17;;;;;;;11.50;9.15;;;;;;;6.95;79.56;94327.91;4192360;28;20471;-76
2020/12/07 02:12:18;;;;;;;11.00;8.00;;;;;;;6.97;79.70;94317.34;4192539;28;20583;-75
2020/12/07 02:14:19;;;;;;;10.25;8.20;;;;;;;6.96;79.77;94326.13;4187894;28;20503;-76
2020/12/07 02:16:21;;;;;;;12.02;8.73;;;;;;;6.94;79.91;94343.69;4186146;28;20175;-77
2020/12/07 02:18:22;;;;;;;11.05;8.73;;;;;;;7.01;79.72;94351.72;4191619;28;20427;-76
2020/12/07 02:20:24;;;;;;;12.93;8.77;;;;;;;7.02;79.76;94362.00;4152844;28;20120;-77
2020/12/07 02:22:25;;;;;;;11.85;8.75;;;;;;;7.03;80.07;94357.59;4191498;28;20213;-77
2020/12/07 02:24:26;;;;;;;10.98;7.97;;;;;;;6.93;79.96;94358.50;4182826;28;20064;-77
2020/12/07 02:26:27;;;;;;;10.32;8.18;;;;;;;6.93;80.35;94363.69;4171779;28;20300;-77
2020/12/07 02:28:29;;;;;;;12.38;8.73;;;;;;;7.02;80.14;94353.38;4172268;28;20048;-77
2020/12/07 02:30:30;;;;;;;12.25;8.60;;;;;;;6.92;80.38;94351.63;4201902;28;20199;-77
2020/12/07 02:32:32;;;;;;;12.90;8.57;;;;;;;6.95;80.37;94340.13;4187027;28;20610;-78
2020/12/07 02:34:33;;;;;;;12.18;8.80;;;;;;;6.90;80.72;94332.72;4169124;28;20049;-76
2020/12/07 02:36:34;;;;;;;13.35;9.00;;;;;;;6.91;80.30;94325.75;4184461;28;20052;-77
2020/12/07 02:38:46;;;;;;;13.27;9.40;;;;;;;6.89;80.41;94325.06;4191049;28;20056;-77
2020/12/07 02:40:47;;;;;;;12.73;9.30;;;;;;;6.94;80.42;94328.06;4192198;28;20056;-77
2020/12/07 02:42:48;;;;;;;13.07;9.07;;;;;;;6.96;80.52;94326.94;4191183;28;20056;-77
2020/12/07 02:44:49;;;;;;;13.38;9.43;;;;;;;7.01;80.35;94336.91;4195384;28;20048;-76
2020/12/07 02:46:51;;;;;;;13.02;9.70;;;;;;;7.06;80.19;94334.72;4186153;28;20097;-77
2020/12/07 02:48:52;;;;;;;13.50;9.45;;;;;;;6.97;80.38;94341.63;4174214;28;20102;-77
2020/12/07 02:50:53;;;;;;;13.18;8.82;;;;;;;6.88;80.32;94334.69;4191352;28;20063;-77
2020/12/07 02:52:54;;;;;;;12.60;8.80;;;;;;;6.93;80.56;94332.44;4191235;28;20086;-77
2020/12/07 02:55:00;;;;;;;14.57;10.23;;;;;;;6.97;80.39;94332.97;4178428;28;20492;-77
2020/12/07 02:57:01;;;;;;;14.07;9.15;;;;;;;7.02;80.31;94335.97;4192060;28;20091;-78
2020/12/07 02:59:03;;;;;;;13.65;9.82;;;;;;;7.02;80.42;94345.56;4189471;28;20072;-77
2020/12/07 03:01:04;;;;;;;15.77;9.63;;;;;;;7.00;80.62;94342.28;4190534;28;20102;-78
2020/12/07 03:03:05;;;;;;;13.90;9.50;;;;;;;7.09;79.95;94344.81;4192402;28;20617;-76
2020/12/07 03:05:06;;;;;;;13.73;9.50;;;;;;;7.12;80.07;94354.13;4191121;28;20101;-76
2020/12/07 03:07:08;;;;;;;11.23;8.55;;;;;;;7.05;80.18;94366.09;4191547;28;20144;-78
2020/12/07 03:09:09;;;;;;;16.63;10.02;;;;;;;7.09;80.14;94362.25;4173489;28;20470;-76
2020/12/07 03:11:10;;;;;;;12.63;9.13;;;;;;;7.05;80.48;94355.69;4174070;28;20052;-78
2020/12/07 03:13:11;;;;;;;13.52;9.40;;;;;;;7.02;80.36;94341.16;4172527;28;20290;-77
2020/12/07 03:15:12;;;;;;;12.52;9.02;;;;;;;7.01;80.75;94341.31;4178563;28;20105;-77
2020/12/07 03:17:14;;;;;;;13.57;9.77;;;;;;;6.96;81.21;94342.56;4202737;28;20051;-78
2020/12/07 03:19:15;;;;;;;14.10;9.13;;;;;;;6.93;80.91;94342.88;4191110;28;20056;-76
2020/12/07 03:21:16;;;;;;;13.88;9.07;;;;;;;6.90;80.66;94337.13;4157876;28;20465;-76
2020/12/07 03:23:17;;;;;;;14.55;9.07;;;;;;;6.91;80.65;94334.38;4191525;28;20052;-77
2020/12/07 03:25:18;;;;;;;12.50;9.68;;;;;;;6.95;81.06;94345.34;4194388;28;20238;-77
2020/12/07 03:27:20;;;;;;;13.18;9.43;;;;;;;6.93;80.94;94352.47;4173942;28;20053;-78
2020/12/07 03:29:21;;;;;;;13.80;10.13;;;;;;;6.96;80.52;94345.16;4192514;28;20551;-76
2020/12/07 03:31:22;;;;;;;12.82;9.55;;;;;;;6.91;80.56;94350.00;4191000;28;20464;-76
2020/12/07 03:33:23;;;;;;;12.90;9.32;;;;;;;6.84;80.74;94348.94;4156974;28;20052;-78
2020/12/07 03:35:25;;;;;;;13.85;9.07;;;;;;;6.89;80.23;94356.31;4186283;28;20115;-77
2020/12/07 03:37:26;;;;;;;13.52;9.55;;;;;;;6.91;80.56;94355.22;4191497;28;20369;-77
2020/12/07 03:39:27;;;;;;;12.25;9.32;;;;;;;6.87;80.52;94353.84;4193962;28;20354;-77
2020/12/07 03:41:28;;;;;;;11.88;8.88;;;;;;;6.94;80.28;94361.91;4194104;28;20049;-77
2020/12/07 03:43:30;;;;;;;13.38;9.27;;;;;;;6.94;80.64;94348.88;4194376;28;20149;-78
2020/12/07 03:45:31;;;;;;;12.52;9.30;;;;;;;6.95;80.30;94346.16;4176413;28;20132;-76
2020/12/07 03:47:33;;;;;;;12.80;9.43;;;;;;;6.91;80.22;94336.97;4187307;28;20423;-77
2020/12/07 03:49:34;;;;;;;13.38;9.55;;;;;;;6.86;80.21;94339.22;4184946;28;20052;-76
2020/12/07 03:51:35;;;;;;;12.85;9.25;;;;;;;6.87;80.40;94335.63;4194707;28;20102;-76
2020/12/07 03:53:38;;;;;;;10.73;8.63;;;;;;;6.92;80.40;94343.81;4194793;28;20141;-77
2020/12/07 03:55:39;;;;;;;13.40;9.35;;;;;;;6.87;80.22;94340.84;4195839;28;20098;-78
2020/12/07 03:57:40;;;;;;;12.70;8.52;;;;;;;6.83;80.13;94339.47;4194919;28;20124;-78
2020/12/07 03:59:41;;;;;;;12.70;8.80;;;;;;;6.80;80.29;94331.13;4192625;28;20414;-76
2020/12/07 04:01:43;;;;;;;12.23;8.95;;;;;;;6.80;81.27;94338.94;4193288;28;20044;-77
2020/12/07 04:03:48;;;;;;;12.82;8.80;;;;;;;6.84;80.83;94338.53;4176948;28;20049;-68
2020/12/07 04:05:59;;;;;;;13.45;9.30;;;;;;;6.85;80.83;94332.34;4178329;28;20442;-69
2020/12/07 04:08:00;;;;;;;11.90;8.70;;;;;;;6.90;80.56;94340.53;4183450;28;20080;-69
2020/12/07 04:10:01;;;;;;;14.43;9.35;;;;;;;6.91;80.21;94336.16;4193397;28;20106;-69
2020/12/07 04:12:03;;;;;;;12.90;9.23;;;;;;;6.93;80.41;94337.66;4195351;28;20052;-69
2020/12/07 04:14:04;;;;;;;12.18;9.55;;;;;;;6.93;80.29;94340.25;4172495;28;20061;-68
2020/12/07 04:16:05;;;;;;;13.05;9.60;;;;;;;6.96;80.37;94333.94;4203692;28;20131;-68
2020/12/07 04:18:06;;;;;;;14.10;9.93;;;;;;;6.97;80.31;94339.00;4204129;28;20044;-69
2020/12/07 04:20:07;;;;;;;13.88;9.60;;;;;;;6.97;80.28;94346.81;4193385;28;20092;-70
2020/12/07 04:22:09;;;;;;;12.32;9.35;;;;;;;6.98;80.52;94352.84;4197629;28;20383;-68
2020/12/07 04:24:10;;;;;;;13.52;9.80;;;;;;;6.99;80.61;94351.88;4199470;28;20051;-69
2020/12/07 04:26:11;;;;;;;16.65;10.38;;;;;;;7.06;79.97;94346.91;4187304;28;20749;-70
2020/12/07 04:28:12;;;;;;;14.73;9.35;;;;;;;7.01;79.60;94341.31;4180050;28;20056;-70
2020/12/07 04:30:13;;;;;;;14.20;9.88;;;;;;;7.00;80.08;94337.06;4191367;28;20071;-69
2020/12/07 04:32:15;;;;;;;16.58;11.00;;;;;;;7.02;80.19;94333.34;4184702;28;20114;-69
2020/12/07 04:34:16;;;;;;;16.33;10.80;;;;;;;6.95;80.58;94340.13;4202163;28;20181;-69
2020/12/07 04:36:17;;;;;;;16.10;11.38;;;;;;;7.01;80.61;94341.31;4205468;28;20068;-69
2020/12/07 04:38:18;;;;;;;14.98;10.10;;;;;;;6.96;80.80;94336.53;4187640;28;20068;-69
2020/12/07 04:40:20;;;;;;;15.27;10.63;;;;;;;7.01;80.89;94333.50;4195859;28;20051;-68
2020/12/07 04:42:21;;;;;;;14.60;11.25;;;;;;;7.07;80.35;94327.69;4194287;28;20135;-69
2020/12/07 04:44:22;;;;;;;25.92;17.60;;;;;;;7.14;80.22;94333.94;4192102;28;20113;-69
2020/12/07 04:46:24;;;;;;;24.42;16.50;;;;;;;7.12;80.30;94328.06;4173505;28;20045;-68
2020/12/07 04:48:26;;;;;;;19.17;12.70;;;;;;;7.08;80.93;94324.97;4161573;28;20496;-69
2020/12/07 04:50:32;;;;;;;16.20;12.25;;;;;;;7.10;80.39;94327.44;4188514;28;20520;-69
2020/12/07 04:52:34;;;;;;;20.40;12.15;;;;;;;7.02;80.52;94322.94;4173251;28;20066;-68
2020/12/07 04:54:37;;;;;;;18.58;12.80;;;;;;;7.01;80.51;94328.28;4193342;28;20053;-69
2020/12/07 04:56:38;;;;;;;16.80;12.40;;;;;;;7.02;80.87;94325.53;4192836;28;20054;-69
2020/12/07 04:58:43;;;;;;;17.42;12.85;;;;;;;7.00;80.59;94332.69;4191063;28;20062;-68
2020/12/07 05:00:44;;;;;;;19.50;13.40;;;;;;;7.01;80.66;94329.09;4174685;28;20049;-69
2020/12/07 05:02:45;;;;;;;18.80;13.20;;;;;;;6.93;80.74;94324.63;4174433;28;20048;-67
2020/12/07 05:04:47;;;;;;;17.23;12.38;;;;;;;6.82;81.77;94330.06;4175190;28;20513;-69
2020/12/07 05:07:04;;;;;;;58.95;35.72;;;;;;;6.86;81.33;94326.19;4182030;28;20067;-69
2020/12/07 05:09:06;;;;;;;26.80;18.65;;;;;;;6.85;81.29;94327.13;4192436;28;20056;-69
2020/12/07 05:11:07;;;;;;;19.17;13.25;;;;;;;6.83;81.57;94323.06;4173473;28;20045;-69
2020/12/07 05:15:13;;;;;;;20.35;14.05;;;;;;;6.86;81.36;94320.97;4190705;28;20060;-69
2020/12/07 05:17:15;;;;;;;22.48;13.55;;;;;;;6.87;81.51;94330.41;4187204;28;20064;-69
2020/12/07 05:19:23;;;;;;;20.75;13.55;;;;;;;6.83;82.02;94331.69;4193344;28;20484;-68
2020/12/07 05:21:25;;;;;;;18.52;13.65;;;;;;;6.82;81.99;94327.44;4179225;28;20182;-69
2020/12/07 05:23:26;;;;;;;21.35;13.48;;;;;;;6.88;81.60;94328.63;4202599;28;20052;-68
2020/12/07 05:25:28;;;;;;;20.63;13.55;;;;;;;6.87;81.57;94333.03;4192390;28;20045;-68
2020/12/07 05:27:33;;;;;;;19.45;13.27;;;;;;;6.87;81.55;94337.41;4188225;28;20144;-69
2020/12/07 05:29:44;;;;;;;18.02;11.93;;;;;;;6.79;82.00;94345.94;4193643;28;20105;-68
2020/12/07 05:31:45;;;;;;;16.20;11.40;;;;;;;6.80;81.69;94337.19;4174958;28;20165;-70
2020/12/07 05:33:47;;;;;;;18.83;12.15;;;;;;;6.82;81.51;94337.84;4191257;28;20048;-69
2020/12/07 05:35:52;;;;;;;17.90;12.18;;;;;;;6.88;81.43;94336.44;4173916;28;20045;-70
2020/12/07 05:37:53;;;;;;;16.40;11.98;;;;;;;6.74;81.60;94340.38;4189807;28;20041;-68
2020/12/07 05:39:55;;;;;;;18.40;11.75;;;;;;;6.75;81.62;94334.19;4190139;28;20118;-78
2020/12/07 05:41:56;;;;;;;16.15;12.00;;;;;;;6.70;81.89;94337.22;4195063;28;20052;-77
2020/12/07 05:43:58;;;;;;;16.00;11.38;;;;;;;6.67;81.44;94336.72;4172595;28;20044;-78
2020/12/07 05:46:00;;;;;;;20.77;13.30;;;;;;;6.70;81.72;94339.00;4192126;28;20130;-79
2020/12/07 05:48:02;;;;;;;16.90;11.50;;;;;;;6.70;81.43;94329.41;4186815;28;20403;-78
2020/12/07 05:50:08;;;;;;;18.58;12.20;;;;;;;6.75;81.42;94326.38;4174844;28;20609;-78
2020/12/07 05:52:09;;;;;;;14.82;10.45;;;;;;;6.72;81.16;94326.66;4179874;28;20049;-77
2020/12/07 05:54:12;;;;;;;17.90;11.68;;;;;;;6.69;81.25;94332.16;4170904;28;20503;-78
2020/12/07 05:56:13;;;;;;;15.07;11.60;;;;;;;6.71;81.19;94332.81;4191419;28;20049;-78
2020/12/07 05:58:20;;;;;;;18.33;11.88;;;;;;;6.69;80.95;94324.34;4162820;28;20055;-69
2020/12/07 06:00:22;;;;;;;16.05;11.52;;;;;;;6.71;80.88;94319.81;4182304;28;20096;-67
2020/12/07 06:02:23;;;;;;;16.55;11.48;;;;;;;6.69;81.01;94321.72;4190126;28;20052;-68
2020/12/07 06:04:27;;;;;;;16.45;11.32;;;;;;;6.70;80.92;94318.19;4193132;28;20066;-69
2020/12/07 06:06:32;;;;;;;;;;;;;;;6.57;81.27;94318.50;4174699;28;20128;-67
2020/12/07 06:08:36;;;;;;;15.63;10.98;;;;;;;6.54;82.13;94322.22;4173371;28;19936;-68
2020/12/07 06:10:42;;;;;;;24.50;16.83;;;;;;;6.48;82.09;94309.78;4184006;28;20524;-68
2020/12/07 06:12:48;;;;;;;15.95;10.93;;;;;;;6.58;81.41;94312.31;4164490;28;20526;-68
2020/12/07 06:14:49;;;;;;;19.10;11.32;;;;;;;6.57;81.57;94303.72;4187972;28;20521;-70
2020/12/07 06:16:51;;;;;;;17.35;12.15;;;;;;;6.54;81.71;94306.63;4179206;28;20052;-69
2020/12/07 06:18:56;;;;;;;16.55;10.55;;;;;;;6.62;81.35;94310.28;4182581;28;20438;-71
2020/12/07 06:21:11;;;;;;;15.23;10.90;;;;;;;6.68;80.79;94307.09;4191823;28;20451;-70
2020/12/07 06:23:16;;;;;;;18.83;11.52;;;;;;;6.73;80.93;94307.47;4172753;28;20057;-70
2020/12/07 06:25:18;;;;;;;15.07;11.25;;;;;;;6.73;80.74;94305.72;4175098;28;20162;-69
2020/12/07 06:27:20;;;;;;;15.43;11.32;;;;;;;6.64;81.20;94310.94;4189374;28;20090;-69
2020/12/07 06:29:21;;;;;;;15.52;10.68;;;;;;;6.63;80.82;94301.50;4172204;28;20048;-68
2020/12/07 06:31:23;;;;;;;14.00;10.85;;;;;;;6.69;81.02;94298.31;4173555;28;20459;-69
2020/12/07 06:33:24;;;;;;;18.00;11.02;;;;;;;6.75;80.75;94305.53;4175239;28;20472;-69
2020/12/07 06:35:28;;;;;;;17.13;11.50;;;;;;;6.71;81.38;94305.03;4193924;28;20128;-69
2020/12/07 06:37:29;;;;;;;15.90;10.80;;;;;;;6.76;81.49;94304.59;4191605;28;20060;-69
2020/12/07 06:39:41;;;;;;;17.25;10.35;;;;;;;6.70;81.79;94290.34;4189932;28;20052;-69
2020/12/07 06:41:44;;;;;;;16.23;10.93;;;;;;;6.69;81.59;94291.34;4170440;28;20057;-69
2020/12/07 06:43:57;;;;;;;17.30;11.25;;;;;;;6.61;82.27;94301.66;4181364;28;20052;-71
2020/12/07 06:45:58;;;;;;;36.60;22.35;;;;;;;6.56;82.71;94293.47;4164192;28;20076;-68
2020/12/07 06:48:09;;;;;;;20.02;12.10;;;;;;;6.59;82.24;94292.34;4187511;28;20176;-69
2020/12/07 06:50:14;;;;;;;18.80;13.18;;;;;;;6.55;81.96;94284.81;4168477;28;20057;-70
2020/12/07 06:52:19;;;;;;;16.92;11.98;;;;;;;6.50;82.54;94292.25;4189982;28;20557;-69
2020/12/07 06:56:40;;;;;;;18.48;12.82;;;;;;;6.43;82.69;94288.59;4179308;28;20060;-69
2020/12/07 06:58:41;;;;;;;18.05;12.20;;;;;;;6.43;82.79;94278.19;4192723;28;20058;-69
2020/12/07 07:00:43;;;;;;;15.65;11.07;;;;;;;6.44;82.75;94279.81;4182564;28;20049;-69
2020/12/07 07:02:45;;;;;;;17.80;12.20;;;;;;;6.45;82.47;94286.63;4200597;28;20427;-70
2020/12/07 07:04:57;;;;;;;17.25;12.30;;;;;;;6.48;82.43;94283.75;4191870;28;20045;-71
2020/12/07 07:06:59;;;;;;;16.77;11.30;;;;;;;6.50;82.02;94284.44;4196901;28;20177;-69
2020/12/07 07:09:00;;;;;;;18.25;12.85;;;;;;;6.51;81.98;94290.47;4186208;28;20053;-70
2020/12/07 07:11:03;;;;;;;20.33;12.52;;;;;;;6.45;82.81;94288.44;4183273;28;20431;-70
2020/12/07 07:13:04;;;;;;;19.05;13.27;;;;;;;6.42;82.53;94278.31;4175803;28;20045;-70
2020/12/07 07:15:07;;;;;;;18.23;13.00;;;;;;;6.40;82.90;94268.06;4180768;28;20090;-70
2020/12/07 07:17:09;;;;;;;20.13;13.63;;;;;;;6.43;82.74;94267.78;4194624;28;20422;-72
2020/12/07 07:19:11;;;;;;;18.27;12.90;;;;;;;6.40;83.08;94268.06;4194631;28;20695;-70
2020/12/07 07:21:12;;;;;;;19.30;12.93;;;;;;;6.27;83.39;94273.59;4159809;28;20052;-69
2020/12/07 07:23:13;;;;;;;21.20;13.77;;;;;;;6.38;82.55;94269.97;4183412;28;20146;-69
2020/12/07 07:29:37;;;;;;;17.27;11.90;;;;;;;6.37;82.71;94268.34;4193073;28;20474;-69
2020/12/07 07:31:38;;;;;;;17.67;11.90;;;;;;;6.45;82.82;94289.25;4194856;28;20052;-70
2020/12/07 07:33:40;;;;;;;16.55;11.52;;;;;;;6.49;82.12;94280.19;4176229;28;20045;-69
2020/12/07 07:35:41;;;;;;;17.75;11.77;;;;;;;6.53;81.56;94280.72;4176087;28;20053;-70
2020/12/07 07:37:43;;;;;;;16.55;10.88;;;;;;;6.52;81.63;94277.31;4176838;28;20553;-70
2020/12/07 07:39:45;;;;;;;16.67;11.38;;;;;;;6.54;81.70;94283.19;4190065;28;20511;-70
2020/12/07 07:41:46;;;;;;;19.63;13.05;;;;;;;6.66;81.15;94289.00;4175206;28;20516;-70
2020/12/07 07:43:48;;;;;;;15.70;11.10;;;;;;;6.58;81.55;94286.31;4174406;28;20053;-69
2020/12/07 07:45:56;;;;;;;15.57;10.60;;;;;;;6.64;81.03;94279.72;4160361;28;20049;-71
2020/12/07 07:48:09;;;;;;;16.55;11.07;;;;;;;6.63;81.04;94275.50;4211432;28;20048;-70
2020/12/07 08:11:27;;;;;;;16.13;10.77;;;;;;;6.81;80.25;94284.13;4194225;28;20499;-80
2020/12/07 08:16:58;;;;;;;19.40;12.30;;;;;;;6.83;80.91;94284.00;4180775;28;20144;-78
2020/12/07 08:19:00;;;;;;;18.58;12.20;;;;;;;6.86;80.19;94286.28;4162840;28;20504;-78
2020/12/07 08:21:02;;;;;;;20.73;12.75;;;;;;;6.80;80.70;94284.28;4196836;28;20395;-78
2020/12/07 08:23:07;;;;;;;20.83;13.10;;;;;;;6.75;81.41;94277.75;4174972;28;20083;-83
2020/12/07 08:25:08;;;;;;;18.27;12.98;;;;;;;6.70;81.07;94282.56;4180620;28;20052;-79
2020/12/07 08:27:12;;;;;;;21.65;13.30;;;;;;;6.73;81.13;94274.47;4194069;28;20553;-81
2020/12/07 08:29:14;;;;;;;21.92;14.07;;;;;;;6.73;81.21;94279.66;4192068;28;20520;-77
2020/12/07 08:31:22;;;;;;;18.75;12.95;;;;;;;6.79;81.40;94278.25;4194041;28;20184;-79
2020/12/07 08:33:23;;;;;;;18.75;13.35;;;;;;;6.78;81.52;94274.03;4173936;28;20327;-80
2020/12/07 08:35:25;;;;;;;19.23;12.93;;;;;;;6.78;82.05;94275.81;4192523;28;20063;-78
2020/12/07 08:37:26;;;;;;;18.42;12.77;;;;;;;6.74;81.80;94267.47;4194161;28;20440;-80
2020/12/07 08:39:27;;;;;;;19.08;12.27;;;;;;;6.78;81.33;94273.22;4176537;28;20052;-80
2020/12/07 08:41:30;;;;;;;18.10;12.23;;;;;;;6.68;81.72;94287.09;4191144;28;20060;-76
2020/12/07 08:43:32;;;;;;;20.13;12.90;;;;;;;6.68;81.73;94271.47;4189635;28;20052;-79
2020/12/07 08:45:33;;;;;;;19.48;12.65;;;;;;;6.73;81.57;94264.06;4194661;28;20109;-79
2020/12/07 08:47:34;;;;;;;20.85;13.70;;;;;;;6.74;82.04;94272.69;4194846;28;20466;-79
2020/12/07 08:49:36;;;;;;;19.13;12.18;;;;;;;6.71;81.48;94268.59;4202182;28;20055;-81
2020/12/07 08:51:38;;;;;;;19.92;13.13;;;;;;;6.69;81.64;94273.13;4166420;28;20049;-79
2020/12/07 08:53:40;;;;;;;18.00;12.60;;;;;;;6.70;81.30;94266.94;4197081;28;20499;-79
2020/12/07 08:55:41;;;;;;;24.92;18.15;;;;;;;6.66;81.16;94264.78;4210650;28;20063;-79
2020/12/07 08:57:42;;;;;;;17.92;12.50;;;;;;;6.68;80.95;94263.66;4162632;28;20066;-81
2020/12/07 08:59:43;;;;;;;17.02;11.50;;;;;;;6.73;80.71;94245.00;4191931;28;20139;-78
2020/12/07 09:01:44;;;;;;;17.52;11.80;;;;;;;6.73;80.79;94242.38;4193991;28;20201;-78
2020/12/07 09:03:47;;;;;;;15.18;10.88;;;;;;;6.70;80.40;94237.50;4194893;28;20124;-80
2020/12/07 09:05:48;;;;;;;16.65;11.52;;;;;;;6.75;80.30;94241.28;4176008;28;20770;-81
2020/12/07 09:07:49;;;;;;;14.48;10.05;;;;;;;6.70;80.57;94235.69;4174952;28;20116;-79
2020/12/07 09:09:50;;;;;;;14.70;10.77;;;;;;;6.74;80.45;94231.84;4192690;28;20063;-78
2020/12/07 09:11:51;;;;;;;16.30;10.27;;;;;;;6.74;80.58;94233.63;4195469;28;20120;-81
2020/12/07 09:13:53;;;;;;;13.55;10.30;;;;;;;6.69;80.72;94234.06;4174071;28;20045;-78
2020/12/07 09:15:54;;;;;;;14.85;10.85;;;;;;;6.75;80.65;94230.88;4193871;28;20121;-80
2020/12/07 09:17:55;;;;;;;16.10;11.48;;;;;;;6.70;81.18;94232.28;4193671;28;20072;-80
2020/12/07 09:19:56;;;;;;;16.92;11.25;;;;;;;6.69;80.80;94231.47;4204733;28;20055;-77
2020/12/07 09:21:58;;;;;;;17.05;10.85;;;;;;;6.74;80.95;94238.84;4191593;28;20139;-80
2020/12/07 09:23:59;;;;;;;16.52;11.30;;;;;;;6.78;80.66;94237.56;4194182;28;20128;-80
2020/12/07 09:26:01;;;;;;;17.48;11.60;;;;;;;6.75;80.34;94240.47;4178443;28;20132;-80
2020/12/07 09:28:03;;;;;;;15.43;11.13;;;;;;;6.70;80.55;94232.28;4173279;28;20057;-81
2020/12/07 09:30:06;;;;;;;16.70;11.40;;;;;;;6.55;81.03;94230.16;4169835;28;20057;-78
2020/12/07 09:32:07;;;;;;;16.25;11.68;;;;;;;6.64;81.01;94227.66;4196004;28;20040;-78
2020/12/07 09:34:08;;;;;;;16.02;10.60;;;;;;;6.65;81.25;94224.91;4183163;28;20059;-82
2020/12/07 09:36:09;;;;;;;18.98;11.60;;;;;;;6.55;81.85;94218.94;4193447;28;20048;-82
2020/12/07 09:38:10;;;;;;;18.23;11.55;;;;;;;6.56;81.73;94218.00;4193686;28;20486;-80
2020/12/07 09:40:12;;;;;;;19.38;11.80;;;;;;;6.56;81.76;94210.19;4193993;28;20045;-81
2020/12/07 09:42:13;;;;;;;18.42;12.15;;;;;;;6.65;81.96;94214.50;4189663;28;20052;-82
2020/12/07 09:44:15;;;;;;;16.40;11.77;;;;;;;6.54;81.81;94215.53;4183199;28;20048;-82
2020/12/07 09:46:16;;;;;;;17.35;12.23;;;;;;;6.47;81.50;94214.47;4189300;28;20410;-81
2020/12/07 09:48:17;;;;;;;17.58;12.10;;;;;;;6.53;80.91;94213.06;4208113;28;20414;-79
2020/12/07 09:50:18;;;;;;;18.23;12.45;;;;;;;6.56;80.78;94218.81;4197765;28;20053;-80
2020/12/07 09:52:19;;;;;;;17.15;12.00;;;;;;;6.39;80.83;94203.97;4186350;28;20054;-80
2020/12/07 09:54:21;;;;;;;16.65;10.93;;;;;;;6.34;81.19;94212.19;4174245;28;20067;-80
2020/12/07 09:56:24;;;;;;;16.35;12.18;;;;;;;6.40;81.11;94205.59;4197714;28;20101;-81
2020/12/07 09:58:25;;;;;;;17.98;11.40;;;;;;;6.45;80.72;94203.38;4187816;28;20622;-81
2020/12/07 10:00:26;;;;;;;16.75;12.75;;;;;;;6.60;80.43;94210.69;4198131;28;20480;-81
2020/12/07 10:02:28;;;;;;;15.93;11.68;;;;;;;6.61;79.93;94201.94;4205371;28;20096;-81